createdAt,value
2023-01-15T00:02:07.517Z,2.21
2023-01-15T00:04:34.161Z,2.20
2023-01-15T00:07:00.758Z,2.21
2023-01-15T00:09:27.521Z,2.24
2023-01-15T00:11:55.031Z,2.22
2023-01-15T00:14:21.674Z,2.23
2023-01-15T00:16:52.310Z,2.23
2023-01-15T00:19:19.230Z,2.22
2023-01-15T00:21:45.801Z,2.21
2023-01-15T00:24:30.736Z,2.20
2023-01-15T00:27:15.691Z,2.17
2023-01-15T00:29:42.252Z,2.16
2023-01-15T00:32:08.925Z,2.16
2023-01-15T00:34:35.951Z,2.16
2023-01-15T00:37:02.855Z,2.14
2023-01-15T00:39:29.439Z,2.13
2023-01-15T00:41:56.539Z,2.12
2023-01-15T00:44:23.224Z,2.05
2023-01-15T00:46:49.859Z,2.03
2023-01-15T00:49:16.647Z,2.05
2023-01-15T00:51:43.437Z,2.05
2023-01-15T00:54:10.210Z,2.01
2023-01-15T00:56:36.925Z,1.95
2023-01-15T00:59:05.530Z,1.87
2023-01-15T01:01:32.584Z,1.74
2023-01-15T01:03:59.308Z,1.64
2023-01-15T01:06:26.241Z,1.57
2023-01-15T01:08:52.829Z,1.47
2023-01-15T01:11:23.980Z,1.43
2023-01-15T01:13:50.863Z,1.42
2023-01-15T01:16:33.659Z,1.41
2023-01-15T01:19:03.766Z,1.38
2023-01-15T01:21:31.201Z,1.34
2023-01-15T01:24:01.857Z,1.33
2023-01-15T01:26:29.743Z,1.32
2023-01-15T01:28:57.295Z,1.27
2023-01-15T01:31:24.811Z,1.25
2023-01-15T01:33:52.779Z,1.25
2023-01-15T01:36:20.777Z,1.24
2023-01-15T01:38:49.899Z,1.20
2023-01-15T01:41:19.820Z,1.18
2023-01-15T01:44:13.111Z,1.20
2023-01-15T01:46:39.677Z,1.19
2023-01-15T01:49:12.888Z,1.17
2023-01-15T01:51:55.033Z,1.16
2023-01-15T01:54:25.078Z,1.19
2023-01-15T01:56:51.962Z,1.16
2023-01-15T01:59:20.906Z,1.09
2023-01-15T02:01:49.558Z,1.04
2023-01-15T02:04:18.663Z,1.02
2023-01-15T02:06:45.217Z,1.04
2023-01-15T02:09:12.313Z,1.03
2023-01-15T02:11:38.982Z,0.94
2023-01-15T02:14:08.566Z,0.98
2023-01-15T02:16:57.557Z,0.99
2023-01-15T02:19:47.045Z,1.04
2023-01-15T02:22:35.151Z,1.10
2023-01-15T02:25:19.999Z,1.14
2023-01-15T02:27:53.198Z,1.13
2023-01-15T02:30:23.240Z,1.14
2023-01-15T02:32:59.203Z,1.12
2023-01-15T02:35:33.762Z,1.15
2023-01-15T02:38:05.757Z,1.14
2023-01-15T02:40:34.153Z,1.09
2023-01-15T02:43:01.348Z,1.09
2023-01-15T02:45:32.922Z,1.10
2023-01-15T02:48:06.539Z,1.13
2023-01-15T02:50:38.882Z,1.13
2023-01-15T02:53:09.827Z,1.15
2023-01-15T02:55:41.886Z,1.14
2023-01-15T02:58:13.497Z,1.11
2023-01-15T03:00:44.826Z,1.13
2023-01-15T03:03:21.188Z,1.15
2023-01-15T03:06:00.687Z,1.16
2023-01-15T03:08:27.335Z,1.14
2023-01-15T03:11:03.207Z,1.14
2023-01-15T03:13:56.159Z,1.10
2023-01-15T03:16:34.705Z,1.11
2023-01-15T03:19:03.919Z,1.10
2023-01-15T03:22:11.919Z,1.10
2023-01-15T03:24:54.211Z,1.06
2023-01-15T03:27:21.790Z,1.07
2023-01-15T03:29:54.462Z,1.10
2023-01-15T03:32:22.324Z,1.13
2023-01-15T03:34:54.458Z,1.15
2023-01-15T03:37:24.291Z,1.12
2023-01-15T03:39:52.358Z,1.06
2023-01-15T03:42:37.308Z,1.02
2023-01-15T03:45:19.299Z,1.04
2023-01-15T03:48:02.755Z,1.04
2023-01-15T03:50:49.699Z,1.04
2023-01-15T03:53:31.043Z,1.07
2023-01-15T03:56:15.687Z,1.09
2023-01-15T03:58:47.691Z,1.11
2023-01-15T04:01:18.814Z,1.13
2023-01-15T04:03:48.963Z,1.13
2023-01-15T04:06:15.950Z,1.17
2023-01-15T04:08:44.115Z,1.15
2023-01-15T04:11:10.715Z,1.14
2023-01-15T04:13:37.336Z,1.16
2023-01-15T04:16:04.632Z,1.18
2023-01-15T04:18:31.236Z,1.22
2023-01-15T04:20:57.857Z,1.22
2023-01-15T04:23:24.443Z,1.17
2023-01-15T04:25:50.973Z,1.19
2023-01-15T04:28:17.667Z,1.23
2023-01-15T04:30:44.305Z,1.25
2023-01-15T04:33:11.880Z,1.25
2023-01-15T04:35:38.890Z,1.26
2023-01-15T04:38:05.493Z,1.28
2023-01-15T04:40:50.323Z,1.30
2023-01-15T04:43:35.726Z,1.24
2023-01-15T04:46:02.350Z,1.23
2023-01-15T04:48:29.083Z,1.24
2023-01-15T04:50:55.643Z,1.26
2023-01-15T04:53:22.235Z,1.26
2023-01-15T04:55:48.791Z,1.29
2023-01-15T04:58:15.373Z,1.26
2023-01-15T05:00:41.957Z,1.28
2023-01-15T05:03:08.518Z,1.28
2023-01-15T05:05:35.128Z,1.30
2023-01-15T05:08:01.695Z,1.33
2023-01-15T05:10:28.242Z,1.33
2023-01-15T05:12:54.854Z,1.31
2023-01-15T05:15:21.448Z,1.35
2023-01-15T05:17:48.042Z,1.36
2023-01-15T05:20:15.481Z,1.36
2023-01-15T05:22:42.068Z,1.31
2023-01-15T05:25:09.101Z,1.35
2023-01-15T05:27:35.705Z,1.35
2023-01-15T05:30:02.291Z,1.35
2023-01-15T05:32:31.087Z,1.31
2023-01-15T05:34:57.806Z,1.34
2023-01-15T05:37:24.411Z,1.36
2023-01-15T05:39:50.963Z,1.37
2023-01-15T05:42:17.584Z,1.40
2023-01-15T05:44:44.217Z,1.43
2023-01-15T05:47:11.011Z,1.43
2023-01-15T05:49:38.119Z,1.42
2023-01-15T05:52:04.840Z,1.42
2023-01-15T05:54:33.741Z,1.43
2023-01-15T05:57:01.610Z,1.44
2023-01-15T05:59:30.724Z,1.45
2023-01-15T06:01:57.739Z,1.47
2023-01-15T06:04:25.439Z,1.51
2023-01-15T06:06:54.306Z,1.52
2023-01-15T06:09:23.172Z,1.50
2023-01-15T06:11:50.529Z,1.53
2023-01-15T06:14:17.364Z,1.54
2023-01-15T06:16:43.945Z,1.58
2023-01-15T06:19:12.508Z,1.61
2023-01-15T06:21:39.305Z,1.63
2023-01-15T06:24:06.458Z,1.65
2023-01-15T06:26:33.561Z,1.64
2023-01-15T06:29:00.140Z,1.67
2023-01-15T06:31:29.360Z,1.67
2023-01-15T06:33:56.244Z,1.70
2023-01-15T06:36:25.367Z,1.73
2023-01-15T06:38:52.370Z,1.74
2023-01-15T06:41:42.800Z,1.77
2023-01-15T06:44:36.407Z,1.80
2023-01-15T06:47:21.093Z,1.83
2023-01-15T06:49:53.899Z,1.87
2023-01-15T06:52:20.655Z,1.87
2023-01-15T06:54:47.209Z,1.89
2023-01-15T06:57:13.986Z,1.92
2023-01-15T06:59:40.613Z,1.95
2023-01-15T07:02:07.416Z,1.96
2023-01-15T07:04:34.151Z,2.00
2023-01-15T07:07:00.784Z,2.05
2023-01-15T07:09:27.398Z,2.10
2023-01-15T07:11:53.979Z,2.13
2023-01-15T07:14:22.753Z,2.17
2023-01-15T07:16:49.929Z,2.21
2023-01-15T07:19:17.495Z,2.25
2023-01-15T07:21:44.832Z,2.28
2023-01-15T07:24:12.536Z,2.33
2023-01-15T07:26:39.528Z,2.34
2023-01-15T07:29:07.315Z,2.37
2023-01-15T07:31:34.213Z,2.39
2023-01-15T07:34:01.008Z,2.37
2023-01-15T07:36:27.958Z,2.40
2023-01-15T07:38:55.796Z,2.42
2023-01-15T07:41:41.217Z,2.44
2023-01-15T07:44:29.774Z,2.48
2023-01-15T07:47:15.148Z,2.49
2023-01-15T07:49:46.149Z,2.52
2023-01-15T07:52:14.248Z,2.52
2023-01-15T07:54:41.262Z,2.55
2023-01-15T07:57:08.337Z,2.55
2023-01-15T07:59:34.939Z,2.58
2023-01-15T08:02:01.638Z,2.63
2023-01-15T08:04:28.209Z,2.64
2023-01-15T08:06:54.807Z,2.66
2023-01-15T08:09:21.409Z,2.69
2023-01-15T08:12:06.611Z,2.71
2023-01-15T08:14:51.408Z,2.71
2023-01-15T08:17:18.015Z,2.71
2023-01-15T08:19:44.551Z,2.79
2023-01-15T08:22:11.604Z,2.79
2023-01-15T08:24:38.277Z,2.84
2023-01-15T08:27:05.224Z,2.86
2023-01-15T08:29:31.971Z,2.89
2023-01-15T08:31:58.631Z,2.94
2023-01-15T08:34:25.369Z,2.99
2023-01-15T08:36:57.266Z,3.04
2023-01-15T08:39:23.841Z,3.08
2023-01-15T08:41:50.399Z,3.15
2023-01-15T08:44:17.169Z,3.16
2023-01-15T08:46:43.949Z,3.18
2023-01-15T08:49:10.908Z,3.20
2023-01-15T08:51:37.495Z,3.23
2023-01-15T08:54:05.227Z,3.28
2023-01-15T08:56:32.018Z,3.31
2023-01-15T08:58:58.564Z,3.33
2023-01-15T09:01:25.243Z,3.32
2023-01-15T09:03:51.994Z,3.40
2023-01-15T09:06:18.585Z,3.45
2023-01-15T09:08:45.200Z,3.54
2023-01-15T09:11:13.295Z,3.57
2023-01-15T09:13:40.053Z,3.59
2023-01-15T09:16:09.901Z,3.62
2023-01-15T09:18:39.147Z,3.64
2023-01-15T09:21:06.685Z,3.62
2023-01-15T09:23:33.644Z,3.64
2023-01-15T09:26:02.545Z,3.65
2023-01-15T09:28:29.567Z,3.65
2023-01-15T09:30:56.260Z,3.65
2023-01-15T09:33:23.015Z,3.68
2023-01-15T09:35:49.805Z,3.72
2023-01-15T09:38:18.604Z,3.74
2023-01-15T09:40:50.361Z,3.78
2023-01-15T09:43:52.231Z,3.80
2023-01-15T09:46:26.016Z,3.86
2023-01-15T09:49:04.367Z,3.92
2023-01-15T09:51:49.900Z,4.00
2023-01-15T09:54:51.622Z,4.03
2023-01-15T09:57:20.689Z,4.06
2023-01-15T09:59:49.506Z,4.17
2023-01-15T10:02:35.875Z,4.29
2023-01-15T10:05:16.839Z,4.33
2023-01-15T10:07:55.455Z,4.41
2023-01-15T10:10:29.864Z,4.46
2023-01-15T10:13:06.647Z,4.55
2023-01-15T10:15:45.796Z,4.52
2023-01-15T10:18:19.409Z,4.55
2023-01-15T10:21:15.794Z,4.62
2023-01-15T10:24:10.841Z,4.73
2023-01-15T10:26:40.690Z,4.84
2023-01-15T10:29:29.392Z,5.05
2023-01-15T10:32:21.901Z,5.05
2023-01-15T10:35:10.317Z,5.36
2023-01-15T10:37:46.102Z,5.64
2023-01-15T10:40:33.228Z,5.82
2023-01-15T10:43:02.597Z,6.02
2023-01-15T10:45:34.418Z,6.22
2023-01-15T10:48:09.672Z,6.22
2023-01-15T10:50:37.087Z,6.23
2023-01-15T10:53:22.019Z,6.23
2023-01-15T10:55:55.377Z,6.17
2023-01-15T10:58:21.873Z,6.11
2023-01-15T11:00:57.044Z,6.04
2023-01-15T11:03:35.471Z,6.02
2023-01-15T11:06:02.215Z,5.98
2023-01-15T11:09:07.190Z,5.93
2023-01-15T11:12:00.666Z,5.96
2023-01-15T11:15:05.434Z,5.90
2023-01-15T11:18:02.205Z,5.80
2023-01-15T11:20:42.771Z,5.77
2023-01-15T11:23:18.550Z,5.70
2023-01-15T11:25:54.391Z,5.66
2023-01-15T11:28:36.757Z,5.67
2023-01-15T11:31:03.584Z,5.76
2023-01-15T11:33:32.118Z,5.83
2023-01-15T11:36:01.744Z,5.94
2023-01-15T11:38:43.406Z,6.19
2023-01-15T11:41:24.132Z,6.41
2023-01-15T11:44:16.919Z,6.45
2023-01-15T11:47:04.721Z,6.69
2023-01-15T11:49:49.679Z,6.93
2023-01-15T11:52:17.730Z,7.29
2023-01-15T11:54:48.833Z,7.43
2023-01-15T11:57:31.479Z,7.51
2023-01-15T11:59:58.418Z,7.50
2023-01-15T12:02:27.979Z,7.49
2023-01-15T12:05:00.265Z,7.60
2023-01-15T12:07:27.039Z,7.60
2023-01-15T12:10:16.380Z,7.59
2023-01-15T12:13:21.215Z,7.65
2023-01-15T12:16:02.793Z,7.83
2023-01-15T12:18:37.340Z,8.01
2023-01-15T12:21:15.842Z,8.23
2023-01-15T12:24:09.698Z,8.54
2023-01-15T12:27:19.663Z,8.86
2023-01-15T12:29:52.734Z,9.11
2023-01-15T12:32:33.702Z,9.19
2023-01-15T12:35:08.647Z,9.19
2023-01-15T12:37:42.281Z,9.24
2023-01-15T12:40:14.567Z,9.24
2023-01-15T12:43:01.469Z,9.25
2023-01-15T12:45:36.898Z,9.30
2023-01-15T12:48:06.399Z,9.18
2023-01-15T12:50:39.398Z,9.26
2023-01-15T12:53:42.565Z,9.25
2023-01-15T12:56:33.905Z,9.09
2023-01-15T12:59:05.246Z,9.02
2023-01-15T13:01:53.230Z,9.06
2023-01-15T13:04:48.812Z,9.04
2023-01-15T13:07:46.125Z,8.92
2023-01-15T13:10:28.551Z,8.89
2023-01-15T13:13:16.344Z,8.89
2023-01-15T13:15:50.414Z,8.92
2023-01-15T13:18:48.093Z,8.87
2023-01-15T13:21:17.285Z,8.75
2023-01-15T13:24:01.991Z,8.78
2023-01-15T13:26:43.420Z,8.76
2023-01-15T13:29:23.344Z,8.58
2023-01-15T13:32:06.790Z,8.48
2023-01-15T13:34:45.632Z,8.36
2023-01-15T13:37:24.309Z,8.37
2023-01-15T13:39:54.569Z,8.27
2023-01-15T13:42:33.157Z,8.24
2023-01-15T13:45:02.346Z,8.15
2023-01-15T13:47:32.538Z,8.14
2023-01-15T13:50:04.801Z,8.08
2023-01-15T13:52:34.036Z,8.04
2023-01-15T13:55:10.486Z,7.96
2023-01-15T13:57:40.533Z,7.88
2023-01-15T14:00:26.523Z,7.83
2023-01-15T14:02:55.919Z,7.81
2023-01-15T14:05:33.392Z,7.72
2023-01-15T14:08:04.510Z,7.64
2023-01-15T14:10:31.028Z,7.61
2023-01-15T14:13:11.060Z,7.58
2023-01-15T14:15:58.652Z,7.60
2023-01-15T14:18:30.941Z,7.55
2023-01-15T14:21:18.727Z,7.52
2023-01-15T14:23:45.422Z,7.48
2023-01-15T14:26:33.094Z,7.47
2023-01-15T14:29:31.879Z,7.48
2023-01-15T14:32:16.749Z,7.46
2023-01-15T14:34:43.768Z,7.47
2023-01-15T14:37:13.034Z,7.43
2023-01-15T14:39:39.615Z,7.41
2023-01-15T14:42:43.711Z,7.35
2023-01-15T14:45:13.007Z,7.33
2023-01-15T14:47:54.435Z,7.28
2023-01-15T14:50:27.827Z,7.30
2023-01-15T14:52:59.406Z,7.28
2023-01-15T14:55:26.724Z,7.25
2023-01-15T14:58:02.128Z,7.28
2023-01-15T15:00:40.123Z,7.27
2023-01-15T15:03:26.217Z,7.27
2023-01-15T15:05:53.245Z,7.24
2023-01-15T15:08:20.942Z,7.20
2023-01-15T15:10:54.884Z,7.20
2023-01-15T15:13:37.958Z,7.18
2023-01-15T15:16:22.657Z,7.16
2023-01-15T15:18:58.454Z,7.14
2023-01-15T15:21:32.443Z,7.14
2023-01-15T15:24:32.439Z,7.14
2023-01-15T15:27:15.209Z,7.10
2023-01-15T15:29:42.281Z,7.08
2023-01-15T15:32:15.080Z,7.05
2023-01-15T15:34:47.067Z,7.04
2023-01-15T15:37:25.871Z,7.04
2023-01-15T15:40:03.260Z,7.02
2023-01-15T15:42:57.319Z,7.04
2023-01-15T15:45:49.401Z,7.05
2023-01-15T15:48:42.955Z,7.03
2023-01-15T15:51:36.521Z,7.02
2023-01-15T15:54:28.220Z,6.96
2023-01-15T15:57:09.538Z,6.95
2023-01-15T15:59:45.589Z,6.94
2023-01-15T16:02:18.100Z,6.92
2023-01-15T16:04:50.500Z,6.90
2023-01-15T16:07:27.665Z,6.89
2023-01-15T16:09:58.709Z,6.87
2023-01-15T16:12:29.215Z,6.87
2023-01-15T16:14:57.776Z,6.85
2023-01-15T16:17:27.039Z,6.82
2023-01-15T16:19:56.320Z,6.81
2023-01-15T16:22:23.410Z,6.81
2023-01-15T16:24:57.797Z,6.80
2023-01-15T16:27:32.772Z,6.80
2023-01-15T16:30:00.038Z,6.75
2023-01-15T16:32:36.153Z,6.72
2023-01-15T16:35:15.895Z,6.70
2023-01-15T16:37:46.557Z,6.71
2023-01-15T16:40:24.412Z,6.70
2023-01-15T16:43:06.213Z,6.71
2023-01-15T16:45:34.390Z,6.72
2023-01-15T16:48:23.917Z,6.71
2023-01-15T16:50:51.991Z,6.71
2023-01-15T16:53:37.175Z,6.69
2023-01-15T16:56:04.885Z,6.69
2023-01-15T16:58:36.417Z,6.69
2023-01-15T17:01:42.937Z,6.67
2023-01-15T17:04:29.555Z,6.63
2023-01-15T17:07:18.373Z,6.54
2023-01-15T17:09:54.677Z,6.53
2023-01-15T17:12:38.328Z,6.50
2023-01-15T17:15:14.088Z,6.47
2023-01-15T17:17:42.112Z,6.48
2023-01-15T17:20:10.567Z,6.44
2023-01-15T17:22:37.669Z,6.43
2023-01-15T17:25:22.626Z,6.42
2023-01-15T17:27:49.199Z,6.38
2023-01-15T17:30:16.568Z,6.36
2023-01-15T17:32:43.245Z,6.32
2023-01-15T17:35:24.251Z,6.30
2023-01-15T17:37:51.218Z,6.28
2023-01-15T17:40:18.157Z,6.27
2023-01-15T17:42:45.285Z,6.26
2023-01-15T17:45:25.154Z,6.27
2023-01-15T17:47:51.739Z,6.27
2023-01-15T17:50:18.668Z,6.26
2023-01-15T17:52:45.820Z,6.26
2023-01-15T17:55:36.217Z,6.22
2023-01-15T17:58:23.364Z,6.21
2023-01-15T18:01:10.344Z,6.25
2023-01-15T18:04:01.799Z,6.21
2023-01-15T18:06:28.723Z,6.21
2023-01-15T18:08:58.870Z,6.20
2023-01-15T18:11:25.450Z,6.19
2023-01-15T18:13:52.483Z,6.18
2023-01-15T18:16:19.253Z,6.18
2023-01-15T18:18:45.855Z,6.17
2023-01-15T18:21:12.450Z,6.18
2023-01-15T18:23:39.705Z,6.16
2023-01-15T18:26:07.795Z,6.16
2023-01-15T18:28:39.059Z,6.15
2023-01-15T18:31:06.886Z,6.13
2023-01-15T18:33:33.752Z,6.13
2023-01-15T18:36:04.548Z,6.10
2023-01-15T18:38:31.154Z,6.08
2023-01-15T18:40:57.829Z,6.05
2023-01-15T18:43:42.996Z,6.06
2023-01-15T18:46:34.496Z,6.04
2023-01-15T18:49:01.041Z,6.01
2023-01-15T18:51:27.599Z,6.01
2023-01-15T18:53:54.169Z,5.97
2023-01-15T18:56:39.070Z,5.96
2023-01-15T18:59:13.068Z,5.97
2023-01-15T19:01:40.984Z,5.98
2023-01-15T19:04:10.970Z,5.97
2023-01-15T19:06:39.335Z,5.97
2023-01-15T19:09:07.925Z,5.92
2023-01-15T19:11:35.259Z,5.91
2023-01-15T19:14:20.773Z,5.91
2023-01-15T19:17:06.065Z,5.90
2023-01-15T19:19:32.643Z,5.88
2023-01-15T19:22:17.787Z,5.88
2023-01-15T19:24:45.652Z,5.83
2023-01-15T19:27:12.690Z,5.81
2023-01-15T19:29:39.265Z,5.78
2023-01-15T19:32:05.935Z,5.76
2023-01-15T19:34:34.403Z,5.76
2023-01-15T19:37:01.345Z,5.76
2023-01-15T19:39:28.961Z,5.73
2023-01-15T19:42:14.557Z,5.72
2023-01-15T19:44:59.823Z,5.64
2023-01-15T19:47:53.321Z,5.57
2023-01-15T19:50:25.930Z,5.52
2023-01-15T19:52:54.397Z,5.48
2023-01-15T19:55:23.245Z,5.46
2023-01-15T19:57:57.492Z,5.47
2023-01-15T20:00:25.182Z,5.45
2023-01-15T20:02:51.956Z,5.39
2023-01-15T20:05:19.553Z,5.40
2023-01-15T20:07:46.148Z,5.39
2023-01-15T20:10:18.107Z,5.40
2023-01-15T20:13:03.358Z,5.41
2023-01-15T20:15:30.857Z,5.43
2023-01-15T20:17:58.147Z,5.42
2023-01-15T20:20:26.270Z,5.41
2023-01-15T20:22:56.531Z,5.38
2023-01-15T20:25:23.749Z,5.38
2023-01-15T20:27:50.324Z,5.34
2023-01-15T20:30:20.817Z,5.35
2023-01-15T20:32:48.358Z,5.35
2023-01-15T20:35:21.031Z,5.31
2023-01-15T20:37:51.243Z,5.30
2023-01-15T20:40:21.031Z,5.24
2023-01-15T20:43:06.371Z,5.22
2023-01-15T20:45:33.317Z,5.19
2023-01-15T20:48:20.232Z,5.17
2023-01-15T20:51:00.858Z,5.16
2023-01-15T20:53:29.875Z,5.18
2023-01-15T20:55:57.777Z,5.18
2023-01-15T20:58:25.001Z,5.13
2023-01-15T21:00:52.269Z,5.10
2023-01-15T21:03:19.131Z,5.07
2023-01-15T21:05:45.821Z,5.01
2023-01-15T21:08:12.638Z,5.00
2023-01-15T21:10:41.152Z,4.91
2023-01-15T21:13:08.109Z,4.89
2023-01-15T21:15:34.759Z,4.86
2023-01-15T21:18:01.381Z,4.88
2023-01-15T21:20:28.111Z,4.86
2023-01-15T21:22:54.742Z,4.86
2023-01-15T21:25:21.343Z,4.87
2023-01-15T21:27:47.920Z,4.83
2023-01-15T21:30:14.760Z,4.83
2023-01-15T21:32:46.184Z,4.82
2023-01-15T21:35:12.791Z,4.81
2023-01-15T21:37:39.443Z,4.77
2023-01-15T21:40:06.687Z,4.73
2023-01-15T21:42:52.975Z,4.66
2023-01-15T21:45:19.802Z,4.69
2023-01-15T21:47:46.393Z,4.66
2023-01-15T21:50:13.236Z,4.66
2023-01-15T21:52:39.829Z,4.64
2023-01-15T21:55:07.438Z,4.64
2023-01-15T21:57:34.056Z,4.66
2023-01-15T22:00:00.629Z,4.66
2023-01-15T22:02:29.725Z,4.64
2023-01-15T22:04:56.491Z,4.63
2023-01-15T22:07:23.147Z,4.63
2023-01-15T22:09:49.779Z,4.65
2023-01-15T22:12:16.620Z,4.63
2023-01-15T22:14:43.210Z,4.56
2023-01-15T22:17:10.964Z,4.51
2023-01-15T22:19:37.760Z,4.46
2023-01-15T22:22:10.692Z,4.36
2023-01-15T22:24:39.688Z,4.31
2023-01-15T22:27:08.089Z,4.20
2023-01-15T22:29:38.371Z,4.14
2023-01-15T22:32:05.981Z,4.15
2023-01-15T22:34:32.611Z,4.11
2023-01-15T22:36:59.523Z,4.07
2023-01-15T22:39:27.014Z,4.03
2023-01-15T22:42:12.091Z,4.01
2023-01-15T22:44:38.587Z,4.00
2023-01-15T22:47:05.727Z,3.98
2023-01-15T22:49:32.692Z,4.00
2023-01-15T22:51:59.378Z,4.02
2023-01-15T22:54:25.972Z,4.03
2023-01-15T22:56:52.551Z,4.05
2023-01-15T22:59:19.533Z,4.07
2023-01-15T23:01:46.613Z,4.09
2023-01-15T23:04:18.909Z,4.09
2023-01-15T23:06:45.877Z,4.10
2023-01-15T23:09:13.190Z,4.11
2023-01-15T23:11:40.110Z,4.10
2023-01-15T23:14:07.914Z,4.09
2023-01-15T23:16:35.160Z,4.07
2023-01-15T23:19:02.176Z,4.06
2023-01-15T23:21:29.068Z,4.05
2023-01-15T23:23:57.411Z,4.06
2023-01-15T23:26:25.528Z,4.02
2023-01-15T23:28:52.850Z,4.03
2023-01-15T23:31:20.448Z,4.02
2023-01-15T23:33:47.261Z,4.02
2023-01-15T23:36:14.240Z,4.02
2023-01-15T23:38:42.847Z,4.06
2023-01-15T23:41:14.101Z,4.10
2023-01-15T23:44:00.387Z,4.08
2023-01-15T23:46:35.068Z,4.01
2023-01-15T23:49:10.026Z,4.00
2023-01-15T23:51:37.257Z,3.98
2023-01-15T23:54:04.860Z,3.98
2023-01-15T23:56:32.654Z,3.99
2023-01-15T23:58:59.321Z,3.97
